createdAt,value
2023-05-08T00:04:29.378Z,50.03
2023-05-08T00:09:31.985Z,48.88
2023-05-08T00:14:34.874Z,49.25
2023-05-08T00:19:37.372Z,50.77
2023-05-08T00:24:40.061Z,51.61
2023-05-08T00:29:43.164Z,51.90
2023-05-08T00:34:45.747Z,51.67
2023-05-08T00:39:48.333Z,52.53
2023-05-08T00:44:51.067Z,51.96
2023-05-08T00:49:53.624Z,53.10
2023-05-08T00:54:56.551Z,53.76
2023-05-08T01:00:03.147Z,54.14
2023-05-08T01:05:06.420Z,55.32
2023-05-08T01:10:09.867Z,55.00
2023-05-08T01:15:18.332Z,55.26
2023-05-08T01:20:53.019Z,55.82
2023-05-08T01:26:15.751Z,55.12
2023-05-08T01:31:50.663Z,54.52
2023-05-08T01:37:03.301Z,55.40
2023-05-08T01:42:28.824Z,55.70
2023-05-08T01:47:37.502Z,54.64
2023-05-08T01:52:48.153Z,54.92
2023-05-08T01:57:53.882Z,56.01
2023-05-08T02:02:58.718Z,56.36
2023-05-08T02:08:04.243Z,55.85
2023-05-08T02:13:08.802Z,56.74
2023-05-08T02:18:13.167Z,56.75
2023-05-08T02:23:17.892Z,57.20
2023-05-08T02:28:21.875Z,58.09
2023-05-08T02:33:26.099Z,57.95
2023-05-08T02:38:30.251Z,57.84
2023-05-08T02:43:33.168Z,57.74
2023-05-08T02:48:47.855Z,57.85
2023-05-08T02:54:10.479Z,57.36
2023-05-08T02:59:31.440Z,58.46
2023-05-08T03:04:47.552Z,58.33
2023-05-08T03:10:05.519Z,57.14
2023-05-08T03:15:15.167Z,57.79
2023-05-08T03:20:19.691Z,58.71
2023-05-08T03:25:23.271Z,58.77
2023-05-08T03:30:27.664Z,58.65
2023-05-08T03:35:32.067Z,57.85
2023-05-08T03:40:38.826Z,58.18
2023-05-08T03:45:41.685Z,59.52
2023-05-08T03:50:45.055Z,60.11
2023-05-08T03:55:47.646Z,60.23
2023-05-08T04:01:11.687Z,60.53
2023-05-08T04:06:22.438Z,60.96
2023-05-08T04:11:58.197Z,69.98
2023-05-08T04:17:04.040Z,73.63
2023-05-08T04:22:10.391Z,66.97
2023-05-08T04:27:13.964Z,61.49
2023-05-08T04:32:17.383Z,55.68
2023-05-08T04:37:25.696Z,55.41
2023-05-08T04:42:29.014Z,56.51
2023-05-08T04:47:31.645Z,57.28
2023-05-08T04:52:34.296Z,57.73
2023-05-08T04:57:36.870Z,58.20
2023-05-08T05:02:39.490Z,58.98
2023-05-08T05:07:42.211Z,59.48
2023-05-08T05:12:44.928Z,59.74
2023-05-08T05:17:47.605Z,60.34
2023-05-08T05:22:50.341Z,51.44
2023-05-08T05:27:53.033Z,43.55
2023-05-08T05:32:55.797Z,35.76
2023-05-08T05:37:58.327Z,32.01
2023-05-08T05:43:00.826Z,29.19
2023-05-08T05:48:03.518Z,26.94
2023-05-08T05:53:06.230Z,25.56
2023-05-08T05:58:09.012Z,24.62
2023-05-08T06:03:12.291Z,24.21
2023-05-08T06:08:16.461Z,24.05
2023-05-08T06:13:19.973Z,23.91
2023-05-08T06:18:22.726Z,23.33
2023-05-08T06:23:26.153Z,23.24
2023-05-08T06:28:28.753Z,23.59
2023-05-08T06:33:34.388Z,23.32
2023-05-08T06:38:36.997Z,22.52
2023-05-08T06:43:39.578Z,22.80
2023-05-08T06:48:42.337Z,22.16
2023-05-08T06:53:44.835Z,22.01
2023-05-08T06:58:56.943Z,22.11
2023-05-08T07:04:04.125Z,21.60
2023-05-08T07:09:06.666Z,21.33
2023-05-08T07:14:09.205Z,21.56
2023-05-08T07:19:11.841Z,21.67
2023-05-08T07:24:14.442Z,21.86
2023-05-08T07:29:16.979Z,21.99
2023-05-08T07:34:19.684Z,21.64
2023-05-08T07:39:22.173Z,19.62
2023-05-08T07:44:25.032Z,18.85
2023-05-08T07:49:27.588Z,19.46
2023-05-08T07:54:30.188Z,18.81
2023-05-08T07:59:32.806Z,17.55
2023-05-08T08:04:35.776Z,18.28
2023-05-08T08:09:38.586Z,19.26
2023-05-08T08:14:41.174Z,20.15
2023-05-08T08:19:43.657Z,20.76
2023-05-08T08:24:46.499Z,21.16
2023-05-08T08:29:49.778Z,21.99
2023-05-08T08:34:52.856Z,22.38
2023-05-08T08:39:56.322Z,22.82
2023-05-08T08:44:59.232Z,23.33
2023-05-08T08:50:04.151Z,24.39
2023-05-08T08:55:09.936Z,23.87
2023-05-08T09:00:13.337Z,25.36
2023-05-08T09:05:16.433Z,23.98
2023-05-08T09:10:20.504Z,24.89
2023-05-08T09:15:23.283Z,24.16
2023-05-08T09:20:26.621Z,24.90
2023-05-08T09:25:47.489Z,25.19
2023-05-08T09:30:57.081Z,24.06
2023-05-08T09:35:59.632Z,23.52
2023-05-08T09:41:18.309Z,23.38
2023-05-08T09:46:22.496Z,23.30
2023-05-08T09:51:26.935Z,23.18
2023-05-08T09:56:36.842Z,23.33
2023-05-08T10:01:39.604Z,23.92
2023-05-08T10:06:42.445Z,23.76
2023-05-08T10:11:55.323Z,23.84
2023-05-08T10:17:00.458Z,24.10
2023-05-08T10:22:04.943Z,23.79
2023-05-08T10:27:17.723Z,23.77
2023-05-08T10:32:22.927Z,23.73
2023-05-08T10:37:29.822Z,23.70
2023-05-08T10:42:36.958Z,23.73
2023-05-08T10:47:51.171Z,23.94
2023-05-08T10:53:02.316Z,23.91
2023-05-08T10:58:26.241Z,23.87
2023-05-08T11:03:33.086Z,23.81
2023-05-08T11:08:49.026Z,23.87
2023-05-08T11:13:55.976Z,24.00
2023-05-08T11:19:16.658Z,24.13
2023-05-08T11:24:34.704Z,24.24
2023-05-08T11:29:38.472Z,23.98
2023-05-08T11:34:44.079Z,23.94
2023-05-08T11:39:47.567Z,23.97
2023-05-08T11:45:04.702Z,23.81
2023-05-08T11:50:12.346Z,23.67
2023-05-08T11:55:15.798Z,24.06
2023-05-08T12:00:18.915Z,23.87
2023-05-08T12:05:28.067Z,23.18
2023-05-08T12:10:30.635Z,23.81
2023-05-08T12:15:33.193Z,23.80
2023-05-08T12:20:36.084Z,24.05
2023-05-08T12:25:39.898Z,23.80
2023-05-08T12:30:42.654Z,23.99
2023-05-08T12:35:45.564Z,24.16
2023-05-08T12:40:57.366Z,23.94
2023-05-08T12:46:01.460Z,24.23
2023-05-08T12:51:05.702Z,24.27
2023-05-08T12:56:08.606Z,24.27
2023-05-08T13:01:13.634Z,24.12
2023-05-08T13:06:21.658Z,24.40
2023-05-08T13:11:34.288Z,24.41
2023-05-08T13:16:44.407Z,24.21
2023-05-08T13:21:47.533Z,24.05
2023-05-08T13:26:50.166Z,23.97
2023-05-08T13:31:53.122Z,24.15
2023-05-08T13:36:55.726Z,24.25
2023-05-08T13:41:58.601Z,24.11
2023-05-08T13:47:01.163Z,24.03
2023-05-08T13:52:03.917Z,23.96
2023-05-08T13:57:06.598Z,23.86
2023-05-08T14:02:09.216Z,23.93
2023-05-08T14:07:11.899Z,23.93
2023-05-08T14:12:14.836Z,24.04
2023-05-08T14:17:17.382Z,23.94
2023-05-08T14:22:20.018Z,23.86
2023-05-08T14:27:22.742Z,23.67
2023-05-08T14:32:25.576Z,23.86
2023-05-08T14:37:28.480Z,23.77
2023-05-08T14:42:31.300Z,23.82
2023-05-08T14:47:33.914Z,23.89
2023-05-08T14:52:37.587Z,23.93
2023-05-08T14:57:40.108Z,23.88
2023-05-08T15:02:43.535Z,24.09
2023-05-08T15:07:46.488Z,23.99
2023-05-08T15:12:49.894Z,23.66
2023-05-08T15:17:52.521Z,23.52
2023-05-08T15:22:55.176Z,23.52
2023-05-08T15:28:00.701Z,23.43
2023-05-08T15:33:04.001Z,23.75
2023-05-08T15:38:07.615Z,23.73
2023-05-08T15:43:11.156Z,23.72
2023-05-08T15:48:13.763Z,23.93
2023-05-08T15:53:16.564Z,23.97
2023-05-08T15:58:19.260Z,24.03
2023-05-08T16:03:22.122Z,24.20
2023-05-08T16:08:25.252Z,24.17
2023-05-08T16:13:28.384Z,24.14
2023-05-08T16:18:30.950Z,24.22
2023-05-08T16:23:33.488Z,24.39
2023-05-08T16:28:36.074Z,24.49
2023-05-08T16:33:39.700Z,24.64
2023-05-08T16:38:42.338Z,24.34
2023-05-08T16:43:44.880Z,24.69
2023-05-08T16:48:48.661Z,24.57
2023-05-08T16:53:51.523Z,24.39
2023-05-08T16:58:56.205Z,24.61
2023-05-08T17:03:58.762Z,24.67
2023-05-08T17:09:01.310Z,24.51
2023-05-08T17:14:03.865Z,24.56
2023-05-08T17:19:06.791Z,24.71
2023-05-08T17:24:09.328Z,24.85
2023-05-08T17:29:11.915Z,24.88
2023-05-08T17:34:14.585Z,25.21
2023-05-08T17:39:19.899Z,26.37
2023-05-08T17:44:22.506Z,26.74
2023-05-08T17:49:25.528Z,27.90
2023-05-08T17:54:28.160Z,28.44
2023-05-08T17:59:30.700Z,28.11
2023-05-08T18:04:33.290Z,28.62
2023-05-08T18:09:35.939Z,28.48
2023-05-08T18:14:38.866Z,28.80
2023-05-08T18:19:41.539Z,28.92
2023-05-08T18:24:45.526Z,30.91
2023-05-08T18:29:48.836Z,30.86
2023-05-08T18:34:52.028Z,31.29
2023-05-08T18:39:54.692Z,30.61
2023-05-08T18:44:57.303Z,30.77
2023-05-08T18:50:00.322Z,31.02
2023-05-08T18:55:04.111Z,31.60
2023-05-08T19:00:07.638Z,31.17
2023-05-08T19:05:10.551Z,30.46
2023-05-08T19:10:13.492Z,30.91
2023-05-08T19:15:16.505Z,31.15
2023-05-08T19:20:19.145Z,31.78
2023-05-08T19:25:22.094Z,32.60
2023-05-08T19:30:24.694Z,32.25
2023-05-08T19:35:27.407Z,32.23
2023-05-08T19:40:31.830Z,31.95
2023-05-08T19:45:35.049Z,33.38
2023-05-08T19:50:37.614Z,33.10
2023-05-08T19:55:40.418Z,33.57
2023-05-08T20:00:42.956Z,34.09
2023-05-08T20:05:46.052Z,34.60
2023-05-08T20:10:49.169Z,34.45
2023-05-08T20:15:54.762Z,35.20
2023-05-08T20:20:57.363Z,36.52
2023-05-08T20:26:00.031Z,36.26
2023-05-08T20:31:02.863Z,35.96
2023-05-08T20:36:05.840Z,36.34
2023-05-08T20:41:08.501Z,36.70
2023-05-08T20:46:11.130Z,37.12
2023-05-08T20:51:15.457Z,38.15
2023-05-08T20:56:19.240Z,37.54
2023-05-08T21:01:21.991Z,37.76
2023-05-08T21:06:24.807Z,38.43
2023-05-08T21:11:27.391Z,40.00
2023-05-08T21:16:30.104Z,40.23
2023-05-08T21:21:32.748Z,40.30
2023-05-08T21:26:35.316Z,40.00
2023-05-08T21:31:37.967Z,41.15
2023-05-08T21:36:40.658Z,41.23
2023-05-08T21:41:44.515Z,42.09
2023-05-08T21:46:48.124Z,41.83
2023-05-08T21:51:50.809Z,42.09
2023-05-08T21:56:53.691Z,42.40
2023-05-08T22:01:56.345Z,42.73
2023-05-08T22:06:58.976Z,42.03
2023-05-08T22:12:01.538Z,42.75
2023-05-08T22:17:04.156Z,43.27
2023-05-08T22:22:06.716Z,43.25
2023-05-08T22:27:09.299Z,43.51
2023-05-08T22:32:12.583Z,44.12
2023-05-08T22:37:17.483Z,43.92
2023-05-08T22:42:20.168Z,44.51
2023-05-08T22:47:22.768Z,44.88
2023-05-08T22:52:25.385Z,44.33
2023-05-08T22:57:27.930Z,44.43
2023-05-08T23:02:35.121Z,45.01
2023-05-08T23:07:37.881Z,46.03
2023-05-08T23:12:40.489Z,45.95
2023-05-08T23:17:43.131Z,46.73
2023-05-08T23:22:45.877Z,47.18
2023-05-08T23:27:49.164Z,46.90
2023-05-08T23:32:51.908Z,46.50
2023-05-08T23:37:54.599Z,47.04
2023-05-08T23:42:57.203Z,46.50
2023-05-08T23:48:00.880Z,46.82
2023-05-08T23:53:03.470Z,46.20
2023-05-08T23:58:07.414Z,46.15
